createdAt,value
2022-12-24T00:00:05.846Z,7.00
2022-12-24T00:01:05.088Z,6.40
2022-12-24T00:02:05.241Z,6.40
2022-12-24T00:03:12.038Z,7.10
2022-12-24T00:04:04.982Z,6.80
2022-12-24T00:05:05.134Z,7.40
2022-12-24T00:06:04.974Z,7.60
2022-12-24T00:07:04.989Z,7.40
2022-12-24T00:08:04.990Z,6.70
2022-12-24T00:09:04.937Z,6.70
2022-12-24T00:10:04.916Z,6.90
2022-12-24T00:11:04.941Z,6.80
2022-12-24T00:12:04.958Z,5.80
2022-12-24T00:13:04.962Z,6.60
2022-12-24T00:14:04.876Z,6.30
2022-12-24T00:15:05.796Z,7.00
2022-12-24T00:16:04.864Z,6.90
2022-12-24T00:17:04.913Z,7.70
2022-12-24T00:18:05.309Z,7.00
2022-12-24T00:19:05.006Z,7.10
2022-12-24T00:20:04.819Z,7.60
2022-12-24T00:21:05.752Z,8.00
2022-12-24T00:22:04.823Z,7.10
2022-12-24T00:23:04.811Z,7.40
2022-12-24T00:24:04.823Z,7.90
2022-12-24T00:25:04.771Z,7.90
2022-12-24T00:26:04.902Z,8.40
2022-12-24T00:27:04.756Z,7.30
2022-12-24T00:28:04.851Z,7.60
2022-12-24T00:29:04.722Z,8.30
2022-12-24T00:30:04.884Z,7.30
2022-12-24T00:31:04.772Z,7.20
2022-12-24T00:32:04.731Z,7.30
2022-12-24T00:33:04.672Z,7.00
2022-12-24T00:34:04.679Z,7.90
2022-12-24T00:35:04.641Z,8.00
2022-12-24T00:36:04.748Z,7.70
2022-12-24T00:37:04.634Z,6.70
2022-12-24T00:38:04.723Z,7.70
2022-12-24T00:39:04.603Z,6.30
2022-12-24T00:40:04.617Z,6.00
2022-12-24T00:41:04.582Z,6.60
2022-12-24T00:42:04.800Z,7.90
2022-12-24T00:43:04.564Z,6.70
2022-12-24T00:44:04.769Z,7.00
2022-12-24T00:45:04.542Z,7.60
2022-12-24T00:46:04.588Z,7.70
2022-12-24T00:47:11.670Z,7.00
2022-12-24T00:48:05.524Z,7.20
2022-12-24T00:49:04.527Z,7.70
2022-12-24T00:50:04.550Z,7.50
2022-12-24T00:51:04.498Z,8.40
2022-12-24T00:52:04.674Z,7.50
2022-12-24T00:53:07.260Z,7.60
2022-12-24T00:54:04.460Z,7.00
2022-12-24T00:55:04.431Z,7.90
2022-12-24T00:56:04.635Z,7.20
2022-12-24T00:57:04.402Z,8.30
2022-12-24T00:58:04.428Z,7.40
2022-12-24T00:59:04.399Z,8.10
2022-12-24T01:00:04.456Z,7.50
2022-12-24T01:01:04.543Z,7.20
2022-12-24T01:02:04.606Z,7.60
2022-12-24T01:03:04.470Z,6.50
2022-12-24T01:04:04.345Z,7.60
2022-12-24T01:05:04.330Z,6.40
2022-12-24T01:06:04.334Z,6.30
2022-12-24T01:07:04.311Z,6.70
2022-12-24T01:08:04.308Z,6.40
2022-12-24T01:09:04.275Z,7.10
2022-12-24T01:10:04.269Z,5.70
2022-12-24T01:11:04.256Z,7.50
2022-12-24T01:12:06.816Z,7.20
2022-12-24T01:13:04.238Z,6.60
2022-12-24T01:14:04.250Z,7.30
2022-12-24T01:15:04.221Z,7.20
2022-12-24T01:16:04.263Z,6.90
2022-12-24T01:17:04.187Z,5.90
2022-12-24T01:18:04.171Z,6.10
2022-12-24T01:19:04.190Z,7.30
2022-12-24T01:20:04.148Z,7.20
2022-12-24T01:21:04.212Z,6.60
2022-12-24T01:22:04.159Z,7.40
2022-12-24T01:23:04.126Z,6.40
2022-12-24T01:24:04.109Z,5.50
2022-12-24T01:25:04.131Z,7.00
2022-12-24T01:26:04.100Z,6.00
2022-12-24T01:27:04.768Z,6.80
2022-12-24T01:28:04.755Z,6.00
2022-12-24T01:29:04.882Z,6.00
2022-12-24T01:30:06.766Z,6.00
2022-12-24T01:31:04.166Z,6.00
2022-12-24T01:32:04.047Z,6.20
2022-12-24T01:33:04.774Z,5.80
2022-12-24T01:34:06.767Z,5.40
2022-12-24T01:35:04.023Z,6.00
2022-12-24T01:36:04.907Z,5.60
2022-12-24T01:37:03.990Z,5.30
2022-12-24T01:38:04.115Z,6.00
2022-12-24T01:39:10.757Z,6.00
2022-12-24T01:40:04.125Z,5.70
2022-12-24T01:41:03.985Z,5.50
2022-12-24T01:42:03.912Z,6.50
2022-12-24T01:43:04.392Z,5.60
2022-12-24T01:44:03.885Z,6.10
2022-12-24T01:45:03.939Z,6.20
2022-12-24T01:46:03.889Z,6.10
2022-12-24T01:47:03.965Z,5.90
2022-12-24T01:48:03.873Z,5.30
2022-12-24T01:49:05.046Z,6.10
2022-12-24T01:50:03.831Z,5.60
2022-12-24T01:51:03.823Z,5.70
2022-12-24T01:52:03.814Z,5.70
2022-12-24T01:53:03.811Z,5.50
2022-12-24T01:54:03.839Z,5.60
2022-12-24T01:55:03.810Z,5.60
2022-12-24T01:56:04.258Z,5.70
2022-12-24T01:57:03.817Z,5.60
2022-12-24T01:58:03.747Z,5.70
2022-12-24T01:59:06.289Z,5.40
2022-12-24T02:00:03.734Z,6.40
2022-12-24T02:01:03.719Z,5.90
2022-12-24T02:02:03.901Z,6.80
2022-12-24T02:03:03.982Z,5.30
2022-12-24T02:04:03.693Z,5.30
2022-12-24T02:05:03.736Z,5.50
2022-12-24T02:06:03.665Z,6.00
2022-12-24T02:07:06.555Z,5.40
2022-12-24T02:08:04.252Z,5.70
2022-12-24T02:09:03.694Z,5.50
2022-12-24T02:10:03.638Z,6.00
2022-12-24T02:11:04.727Z,5.00
2022-12-24T02:12:03.589Z,5.00
2022-12-24T02:13:24.610Z,4.90
2022-12-24T02:14:06.262Z,5.30
2022-12-24T02:15:03.791Z,4.50
2022-12-24T02:16:03.571Z,5.30
2022-12-24T02:17:03.561Z,5.00
2022-12-24T02:18:03.521Z,5.60
2022-12-24T02:19:06.420Z,5.50
2022-12-24T02:20:03.496Z,5.80
2022-12-24T02:21:03.484Z,6.10
2022-12-24T02:22:03.586Z,6.20
2022-12-24T02:23:04.761Z,6.30
2022-12-24T02:24:03.463Z,5.80
2022-12-24T02:25:03.452Z,5.40
2022-12-24T02:26:10.380Z,5.70
2022-12-24T02:27:03.457Z,5.50
2022-12-24T02:28:04.436Z,5.90
2022-12-24T02:29:03.393Z,5.30
2022-12-24T02:30:03.405Z,6.40
2022-12-24T02:31:10.312Z,5.80
2022-12-24T02:32:03.502Z,5.50
2022-12-24T02:33:03.352Z,5.90
2022-12-24T02:34:03.346Z,5.30
2022-12-24T02:35:03.333Z,5.50
2022-12-24T02:36:03.468Z,7.10
2022-12-24T02:37:03.319Z,6.10
2022-12-24T02:38:03.533Z,5.20
2022-12-24T02:39:03.287Z,6.00
2022-12-24T02:40:03.505Z,5.00
2022-12-24T02:41:03.299Z,5.40
2022-12-24T02:42:09.891Z,5.40
2022-12-24T02:43:03.243Z,5.40
2022-12-24T02:44:03.272Z,5.80
2022-12-24T02:45:03.235Z,6.20
2022-12-24T02:46:09.819Z,6.00
2022-12-24T02:47:03.262Z,5.10
2022-12-24T02:48:03.354Z,7.10
2022-12-24T02:49:03.202Z,5.80
2022-12-24T02:50:03.348Z,5.60
2022-12-24T02:51:03.178Z,5.40
2022-12-24T02:52:03.164Z,5.60
2022-12-24T02:53:03.129Z,5.60
2022-12-24T02:54:03.232Z,6.20
2022-12-24T02:55:03.117Z,5.90
2022-12-24T02:56:05.857Z,6.10
2022-12-24T02:57:03.137Z,5.70
2022-12-24T02:58:03.790Z,5.90
2022-12-24T02:59:03.085Z,5.90
2022-12-24T03:00:03.082Z,6.20
2022-12-24T03:01:03.875Z,5.60
2022-12-24T03:02:03.146Z,7.40
2022-12-24T03:03:03.180Z,5.50
2022-12-24T03:04:05.778Z,6.20
2022-12-24T03:05:03.034Z,5.10
2022-12-24T03:06:04.014Z,5.90
2022-12-24T03:07:02.981Z,5.80
2022-12-24T03:08:02.980Z,6.10
2022-12-24T03:09:02.956Z,6.80
2022-12-24T03:10:03.132Z,5.70
2022-12-24T03:11:05.783Z,5.30
2022-12-24T03:12:02.955Z,5.40
2022-12-24T03:13:03.100Z,5.90
2022-12-24T03:14:02.926Z,4.90
2022-12-24T03:15:02.919Z,5.20
2022-12-24T03:16:03.836Z,6.00
2022-12-24T03:17:09.883Z,5.40
2022-12-24T03:18:02.865Z,5.20
2022-12-24T03:19:02.940Z,4.90
2022-12-24T03:20:02.951Z,6.20
2022-12-24T03:21:04.065Z,5.60
2022-12-24T03:22:02.837Z,5.20
2022-12-24T03:23:03.989Z,6.10
2022-12-24T03:24:02.804Z,6.40
2022-12-24T03:25:02.914Z,5.20
2022-12-24T03:26:02.829Z,5.60
2022-12-24T03:27:02.770Z,5.70
2022-12-24T03:28:03.289Z,6.10
2022-12-24T03:29:03.259Z,5.60
2022-12-24T03:30:02.750Z,5.10
2022-12-24T03:31:02.863Z,6.50
2022-12-24T03:32:02.960Z,5.30
2022-12-24T03:33:02.720Z,6.10
2022-12-24T03:34:02.825Z,6.80
2022-12-24T03:35:02.670Z,5.90
2022-12-24T03:36:02.854Z,6.10
2022-12-24T03:37:02.683Z,5.70
2022-12-24T03:38:04.504Z,6.80
2022-12-24T03:39:02.630Z,4.90
2022-12-24T03:40:02.671Z,6.20
2022-12-24T03:41:03.263Z,5.20
2022-12-24T03:42:02.640Z,6.40
2022-12-24T03:43:02.630Z,5.20
2022-12-24T03:44:02.694Z,6.70
2022-12-24T03:45:02.575Z,5.30
2022-12-24T03:46:02.623Z,5.30
2022-12-24T03:47:02.545Z,5.80
2022-12-24T03:48:02.565Z,6.20
2022-12-24T03:49:02.539Z,5.80
2022-12-24T03:50:02.567Z,5.60
2022-12-24T03:51:02.527Z,6.00
2022-12-24T03:52:02.545Z,5.80
2022-12-24T03:53:02.497Z,5.50
2022-12-24T03:54:03.767Z,6.70
2022-12-24T03:55:02.469Z,5.90
2022-12-24T03:56:02.568Z,5.80
2022-12-24T03:57:02.434Z,6.30
2022-12-24T03:58:03.414Z,6.10
2022-12-24T03:59:02.650Z,6.50
2022-12-24T04:00:03.259Z,6.20
2022-12-24T04:01:02.718Z,6.10
2022-12-24T04:02:02.642Z,6.30
2022-12-24T04:03:02.634Z,5.30
2022-12-24T04:04:03.293Z,6.50
2022-12-24T04:05:02.503Z,7.20
2022-12-24T04:06:02.342Z,6.20
2022-12-24T04:07:02.334Z,6.20
2022-12-24T04:08:03.471Z,5.70
2022-12-24T04:09:02.303Z,6.00
2022-12-24T04:10:02.527Z,6.30
2022-12-24T04:11:09.307Z,5.90
2022-12-24T04:12:03.342Z,5.90
2022-12-24T04:13:02.267Z,6.70
2022-12-24T04:14:02.280Z,7.20
2022-12-24T04:15:02.392Z,5.80
2022-12-24T04:16:02.404Z,6.30
2022-12-24T04:17:02.317Z,6.00
2022-12-24T04:18:02.323Z,5.90
2022-12-24T04:19:02.194Z,6.50
2022-12-24T04:20:02.179Z,7.20
2022-12-24T04:21:02.381Z,6.20
2022-12-24T04:22:02.165Z,6.60
2022-12-24T04:23:02.960Z,7.40
2022-12-24T04:24:02.136Z,6.40
2022-12-24T04:25:03.061Z,6.00
2022-12-24T04:26:02.214Z,6.40
2022-12-24T04:27:02.115Z,7.20
2022-12-24T04:28:02.786Z,6.30
2022-12-24T04:29:08.791Z,7.00
2022-12-24T04:30:02.183Z,6.80
2022-12-24T04:31:02.068Z,6.10
2022-12-24T04:32:02.211Z,6.70
2022-12-24T04:33:02.052Z,6.40
2022-12-24T04:34:02.239Z,6.50
2022-12-24T04:35:02.015Z,6.50
2022-12-24T04:36:03.807Z,7.00
2022-12-24T04:37:02.301Z,6.70
2022-12-24T04:38:02.034Z,6.50
2022-12-24T04:39:01.988Z,6.70
2022-12-24T04:40:02.875Z,6.60
2022-12-24T04:41:04.765Z,7.10
2022-12-24T04:42:02.116Z,7.50
2022-12-24T04:43:01.933Z,7.40
2022-12-24T04:44:02.075Z,7.20
2022-12-24T04:45:01.931Z,6.20
2022-12-24T04:46:01.952Z,6.60
2022-12-24T04:47:01.959Z,6.50
2022-12-24T04:48:01.929Z,7.90
2022-12-24T04:49:01.950Z,7.00
2022-12-24T04:50:01.875Z,6.20
2022-12-24T04:51:01.873Z,6.80
2022-12-24T04:52:01.863Z,7.60
2022-12-24T04:53:01.988Z,7.20
2022-12-24T04:54:01.812Z,6.70
2022-12-24T04:55:02.978Z,7.20
2022-12-24T04:56:01.811Z,7.10
2022-12-24T04:57:01.970Z,7.90
2022-12-24T04:58:01.763Z,7.30
2022-12-24T04:59:01.840Z,6.40
2022-12-24T05:00:01.749Z,6.80
2022-12-24T05:01:04.553Z,6.30
2022-12-24T05:02:01.915Z,7.80
2022-12-24T05:03:01.727Z,7.00
2022-12-24T05:04:01.805Z,7.80
2022-12-24T05:05:01.728Z,7.60
2022-12-24T05:06:01.803Z,7.30
2022-12-24T05:07:01.695Z,6.50
2022-12-24T05:08:01.662Z,7.90
2022-12-24T05:09:01.839Z,7.40
2022-12-24T05:10:02.288Z,6.90
2022-12-24T05:11:01.712Z,7.00
2022-12-24T05:12:01.613Z,7.10
2022-12-24T05:13:01.663Z,6.40
2022-12-24T05:14:04.273Z,7.30
2022-12-24T05:15:01.585Z,7.50
2022-12-24T05:16:01.591Z,7.00
2022-12-24T05:17:04.395Z,7.80
2022-12-24T05:18:01.701Z,7.00
2022-12-24T05:19:01.535Z,6.40
2022-12-24T05:20:01.705Z,7.00
2022-12-24T05:21:01.533Z,7.60
2022-12-24T05:22:01.993Z,6.70
2022-12-24T05:23:01.509Z,6.40
2022-12-24T05:24:01.542Z,6.40
2022-12-24T05:25:01.475Z,6.20
2022-12-24T05:26:01.537Z,6.70
2022-12-24T05:27:01.460Z,7.50
2022-12-24T05:28:01.615Z,6.30
2022-12-24T05:29:01.434Z,6.60
2022-12-24T05:30:01.432Z,6.20
2022-12-24T05:31:01.594Z,6.80
2022-12-24T05:32:01.403Z,5.70
2022-12-24T05:33:01.386Z,6.20
2022-12-24T05:34:01.450Z,6.90
2022-12-24T05:35:08.360Z,6.90
2022-12-24T05:36:01.365Z,6.50
2022-12-24T05:37:01.466Z,7.20
2022-12-24T05:38:01.351Z,7.00
2022-12-24T05:39:13.538Z,6.60
2022-12-24T05:40:02.338Z,7.30
2022-12-24T05:41:02.284Z,6.90
2022-12-24T05:42:01.300Z,6.60
2022-12-24T05:43:02.886Z,6.60
2022-12-24T05:44:01.292Z,6.40
2022-12-24T05:45:01.274Z,7.50
2022-12-24T05:46:01.945Z,7.20
2022-12-24T05:47:01.251Z,7.00
2022-12-24T05:48:01.336Z,8.00
2022-12-24T05:49:01.233Z,6.70
2022-12-24T05:50:01.293Z,8.40
2022-12-24T05:51:01.306Z,7.20
2022-12-24T05:52:01.776Z,7.10
2022-12-24T05:53:04.006Z,8.00
2022-12-24T05:54:01.188Z,7.30
2022-12-24T05:55:03.992Z,6.30
2022-12-24T05:56:01.136Z,7.30
2022-12-24T05:57:01.341Z,6.60
2022-12-24T05:58:01.107Z,7.00
2022-12-24T05:59:02.261Z,7.20
2022-12-24T06:00:01.141Z,7.30
2022-12-24T06:01:01.173Z,7.20
2022-12-24T06:02:01.266Z,7.60
2022-12-24T06:03:22.784Z,7.20
2022-12-24T06:04:01.433Z,7.20
2022-12-24T06:05:01.125Z,7.90
2022-12-24T06:06:01.219Z,7.90
2022-12-24T06:07:01.008Z,7.50
2022-12-24T06:08:01.218Z,7.90
2022-12-24T06:09:01.038Z,8.10
2022-12-24T06:10:01.003Z,8.20
2022-12-24T06:11:01.033Z,9.30
2022-12-24T06:12:00.963Z,9.50
2022-12-24T06:13:01.861Z,9.30
2022-12-24T06:14:00.942Z,7.80
2022-12-24T06:15:01.138Z,8.80
2022-12-24T06:16:01.059Z,8.80
2022-12-24T06:17:01.085Z,7.40
2022-12-24T06:18:00.893Z,7.90
2022-12-24T06:19:01.080Z,7.70
2022-12-24T06:20:00.873Z,6.80
2022-12-24T06:21:01.964Z,7.00
2022-12-24T06:22:00.875Z,7.90
2022-12-24T06:23:00.913Z,6.40
2022-12-24T06:24:00.962Z,7.00
2022-12-24T06:25:01.856Z,6.80
2022-12-24T06:26:00.845Z,8.10
2022-12-24T06:27:00.815Z,6.90
2022-12-24T06:28:00.962Z,7.10
2022-12-24T06:29:00.776Z,7.30
2022-12-24T06:30:00.963Z,7.40
2022-12-24T06:31:03.165Z,6.90
2022-12-24T06:32:00.874Z,7.60
2022-12-24T06:33:01.032Z,8.20
2022-12-24T06:34:00.723Z,7.20
2022-12-24T06:35:00.793Z,7.40
2022-12-24T06:36:00.701Z,7.60
2022-12-24T06:37:00.715Z,7.50
2022-12-24T06:38:00.695Z,7.40
2022-12-24T06:39:00.809Z,7.50
2022-12-24T06:40:00.664Z,7.40
2022-12-24T06:41:01.868Z,7.40
2022-12-24T06:42:00.634Z,7.20
2022-12-24T06:43:01.301Z,6.80
2022-12-24T06:44:00.634Z,7.40
2022-12-24T06:45:07.497Z,6.80
2022-12-24T06:46:01.691Z,8.00
2022-12-24T06:47:00.703Z,7.20
2022-12-24T06:48:00.920Z,7.10
2022-12-24T06:49:00.862Z,7.70
2022-12-24T06:50:00.675Z,7.10
2022-12-24T06:51:00.527Z,7.20
2022-12-24T06:52:00.526Z,7.20
2022-12-24T06:53:00.510Z,7.10
2022-12-24T06:54:00.520Z,7.20
2022-12-24T06:55:01.305Z,7.70
2022-12-24T06:56:00.513Z,7.60
2022-12-24T06:57:00.481Z,8.00
2022-12-24T06:58:00.457Z,8.30
2022-12-24T06:59:05.366Z,7.70
2022-12-24T07:00:01.451Z,8.70
2022-12-24T07:01:00.417Z,7.90
2022-12-24T07:02:00.633Z,7.60
2022-12-24T07:03:00.545Z,7.10
2022-12-24T07:04:00.552Z,7.40
2022-12-24T07:05:00.372Z,8.00
2022-12-24T07:06:00.379Z,8.20
2022-12-24T07:07:00.364Z,7.90
2022-12-24T07:08:00.360Z,8.20
2022-12-24T07:09:01.330Z,7.70
2022-12-24T07:10:00.421Z,8.90
2022-12-24T07:11:00.314Z,7.40
2022-12-24T07:12:07.301Z,9.20
2022-12-24T07:13:01.351Z,7.40
2022-12-24T07:14:00.318Z,7.70
2022-12-24T07:15:00.496Z,7.60
2022-12-24T07:16:02.973Z,8.30
2022-12-24T07:17:00.863Z,7.70
2022-12-24T07:18:00.249Z,7.70
2022-12-24T07:19:00.224Z,8.50
2022-12-24T07:20:00.318Z,8.30
2022-12-24T07:21:02.777Z,7.50
2022-12-24T07:22:00.341Z,8.10
2022-12-24T07:23:00.179Z,7.80
2022-12-24T07:24:00.294Z,7.40
2022-12-24T07:25:00.172Z,7.40
2022-12-24T07:26:00.301Z,6.90
2022-12-24T07:27:00.314Z,6.60
2022-12-24T07:28:00.806Z,6.60
2022-12-24T07:29:00.106Z,7.10
2022-12-24T07:30:00.165Z,7.30
2022-12-24T07:31:02.881Z,7.60
2022-12-24T07:32:00.214Z,8.10
2022-12-24T07:33:00.100Z,8.00
2022-12-24T07:34:00.060Z,8.10
2022-12-24T07:35:00.050Z,8.00
2022-12-24T07:36:00.070Z,7.50
2022-12-24T07:37:00.176Z,8.00
2022-12-24T07:38:00.045Z,8.20
2022-12-24T07:39:00.039Z,7.10
2022-12-24T07:40:00.197Z,7.70
2022-12-24T07:40:59.989Z,7.60
2022-12-24T07:42:00.009Z,6.70
2022-12-24T07:43:01.275Z,8.50
2022-12-24T07:44:00.852Z,7.80
2022-12-24T07:44:59.935Z,7.80
2022-12-24T07:46:00.519Z,8.20
2022-12-24T07:47:00.024Z,8.20
2022-12-24T07:47:59.908Z,8.30
2022-12-24T07:49:00.310Z,8.20
2022-12-24T07:50:02.952Z,7.80
2022-12-24T07:51:00.799Z,8.20
2022-12-24T07:51:59.897Z,8.30
2022-12-24T07:52:59.854Z,7.60
2022-12-24T07:53:59.925Z,7.20
2022-12-24T07:54:59.850Z,8.10
2022-12-24T07:55:59.893Z,7.90
2022-12-24T07:57:02.787Z,7.80
2022-12-24T07:57:59.974Z,7.90
2022-12-24T07:58:59.792Z,7.80
2022-12-24T07:59:59.996Z,7.10
2022-12-24T08:00:59.780Z,6.90
2022-12-24T08:01:59.932Z,7.60
2022-12-24T08:02:59.905Z,7.70
2022-12-24T08:03:59.839Z,8.50
2022-12-24T08:05:02.282Z,7.10
2022-12-24T08:05:59.765Z,7.90
2022-12-24T08:06:59.705Z,6.80
2022-12-24T08:07:59.698Z,6.40
2022-12-24T08:08:59.670Z,7.70
2022-12-24T08:09:59.663Z,7.10
2022-12-24T08:10:59.655Z,7.00
2022-12-24T08:11:59.663Z,7.00
2022-12-24T08:12:59.654Z,6.90
2022-12-24T08:13:59.654Z,7.10
2022-12-24T08:14:59.607Z,7.80
2022-12-24T08:15:59.716Z,8.40
2022-12-24T08:17:00.285Z,7.20
2022-12-24T08:17:59.633Z,7.30
2022-12-24T08:18:59.565Z,7.20
2022-12-24T08:19:59.699Z,7.10
2022-12-24T08:20:59.558Z,7.50
2022-12-24T08:21:59.665Z,7.10
2022-12-24T08:22:59.538Z,7.00
2022-12-24T08:23:59.666Z,7.00
2022-12-24T08:24:59.533Z,6.90
2022-12-24T08:25:59.489Z,7.20
2022-12-24T08:26:59.501Z,7.40
2022-12-24T08:27:59.492Z,7.60
2022-12-24T08:29:00.293Z,8.40
2022-12-24T08:29:59.525Z,8.20
2022-12-24T08:30:59.447Z,7.70
2022-12-24T08:31:59.577Z,6.70
2022-12-24T08:32:59.410Z,6.30
2022-12-24T08:33:59.549Z,6.90
2022-12-24T08:34:59.421Z,7.50
2022-12-24T08:35:59.543Z,6.30
2022-12-24T08:36:59.368Z,6.80
2022-12-24T08:37:59.570Z,6.40
2022-12-24T08:38:59.359Z,6.00
2022-12-24T08:39:59.334Z,5.90
2022-12-24T08:40:59.327Z,5.90
2022-12-24T08:42:01.568Z,6.40
2022-12-24T08:42:59.392Z,6.90
2022-12-24T08:44:02.478Z,6.40
2022-12-24T08:44:59.286Z,6.30
2022-12-24T08:45:59.423Z,7.00
2022-12-24T08:47:01.796Z,6.10
2022-12-24T08:47:59.279Z,5.60
2022-12-24T08:48:59.283Z,6.20
2022-12-24T08:49:59.227Z,6.40
2022-12-24T08:50:59.211Z,6.00
2022-12-24T08:51:59.297Z,6.00
2022-12-24T08:52:59.221Z,6.20
2022-12-24T08:53:59.783Z,6.10
2022-12-24T08:54:59.164Z,6.70
2022-12-24T08:56:01.943Z,5.90
2022-12-24T08:56:59.156Z,6.00
2022-12-24T08:57:59.200Z,6.10
2022-12-24T08:58:59.121Z,6.90
2022-12-24T08:59:59.396Z,5.10
2022-12-24T09:00:59.223Z,5.70
2022-12-24T09:01:59.961Z,6.00
2022-12-24T09:02:59.435Z,5.80
2022-12-24T09:03:59.079Z,6.00
2022-12-24T09:04:59.130Z,5.30
2022-12-24T09:05:59.081Z,5.20
2022-12-24T09:06:59.146Z,5.10
2022-12-24T09:07:59.035Z,5.40
2022-12-24T09:08:59.150Z,5.20
2022-12-24T09:09:59.783Z,5.50
2022-12-24T09:11:00.000Z,5.40
2022-12-24T09:11:59.006Z,5.20
2022-12-24T09:12:58.992Z,5.80
2022-12-24T09:13:58.967Z,4.80
2022-12-24T09:15:03.424Z,5.30
2022-12-24T09:16:02.946Z,5.30
2022-12-24T09:16:59.895Z,4.70
2022-12-24T09:17:59.068Z,5.20
2022-12-24T09:18:58.917Z,6.30
2022-12-24T09:19:59.062Z,5.10
2022-12-24T09:20:59.787Z,5.30
2022-12-24T09:21:58.868Z,5.40
2022-12-24T09:22:59.077Z,5.80
2022-12-24T09:23:58.867Z,6.80
2022-12-24T09:24:58.851Z,5.70
2022-12-24T09:25:58.846Z,6.50
2022-12-24T09:27:01.818Z,6.00
2022-12-24T09:28:01.783Z,5.60
2022-12-24T09:28:58.816Z,5.70
2022-12-24T09:29:58.888Z,4.80
2022-12-24T09:30:58.790Z,4.50
2022-12-24T09:31:59.052Z,5.10
2022-12-24T09:32:58.751Z,4.90
2022-12-24T09:33:59.327Z,5.20
2022-12-24T09:34:58.802Z,6.10
2022-12-24T09:35:58.763Z,4.70
2022-12-24T09:36:58.721Z,5.70
2022-12-24T09:37:58.706Z,4.60
2022-12-24T09:38:58.689Z,4.90
2022-12-24T09:39:59.301Z,4.30
2022-12-24T09:41:02.427Z,5.80
2022-12-24T09:41:59.654Z,4.60
2022-12-24T09:42:58.681Z,5.00
2022-12-24T09:43:58.635Z,5.10
2022-12-24T09:44:59.402Z,5.60
2022-12-24T09:45:58.662Z,5.10
2022-12-24T09:46:58.643Z,5.90
2022-12-24T09:47:58.593Z,6.10
2022-12-24T09:48:58.587Z,4.60
2022-12-24T09:49:58.579Z,4.90
2022-12-24T09:50:59.448Z,5.90
2022-12-24T09:51:58.600Z,5.60
2022-12-24T09:52:58.545Z,4.40
2022-12-24T09:53:58.538Z,5.20
2022-12-24T09:54:58.528Z,5.30
2022-12-24T09:55:58.506Z,5.30
2022-12-24T09:56:58.508Z,5.50
2022-12-24T09:57:58.666Z,5.50
2022-12-24T09:58:58.466Z,5.40
2022-12-24T10:00:01.386Z,5.20
2022-12-24T10:00:58.530Z,5.00
2022-12-24T10:01:59.444Z,5.90
2022-12-24T10:02:58.526Z,5.50
2022-12-24T10:03:59.286Z,5.80
2022-12-24T10:04:58.515Z,5.60
2022-12-24T10:05:59.291Z,5.60
2022-12-24T10:06:58.532Z,5.20
2022-12-24T10:07:58.391Z,5.20
2022-12-24T10:08:58.593Z,5.80
2022-12-24T10:09:58.545Z,5.40
2022-12-24T10:10:58.343Z,4.90
2022-12-24T10:11:58.355Z,5.70
2022-12-24T10:12:59.295Z,6.80
2022-12-24T10:13:58.421Z,6.00
2022-12-24T10:14:58.296Z,6.20
2022-12-24T10:15:58.990Z,5.80
2022-12-24T10:16:58.444Z,6.50
2022-12-24T10:17:58.398Z,6.10
2022-12-24T10:18:58.247Z,6.50
2022-12-24T10:19:58.405Z,4.80
2022-12-24T10:20:58.289Z,6.70
2022-12-24T10:21:58.429Z,5.80
2022-12-24T10:22:58.258Z,6.30
2022-12-24T10:23:58.251Z,6.40
2022-12-24T10:24:58.799Z,6.00
2022-12-24T10:25:58.176Z,6.70
2022-12-24T10:26:58.174Z,7.10
2022-12-24T10:28:00.393Z,6.50
2022-12-24T10:28:58.153Z,6.40
2022-12-24T10:29:58.273Z,6.50
2022-12-24T10:30:58.141Z,6.20
2022-12-24T10:31:59.367Z,7.10
2022-12-24T10:32:58.104Z,7.40
2022-12-24T10:33:58.094Z,7.10
2022-12-24T10:34:58.079Z,7.20
2022-12-24T10:35:58.103Z,7.00
2022-12-24T10:36:58.800Z,7.70
2022-12-24T10:37:58.169Z,6.60
2022-12-24T10:38:58.045Z,5.90
2022-12-24T10:39:58.808Z,5.80
2022-12-24T10:40:58.008Z,6.50
2022-12-24T10:41:58.792Z,5.80
2022-12-24T10:42:58.217Z,6.10
2022-12-24T10:43:57.991Z,6.70
2022-12-24T10:44:58.168Z,6.10
2022-12-24T10:45:57.989Z,6.10
2022-12-24T10:46:57.951Z,6.40
2022-12-24T10:47:57.958Z,6.00
2022-12-24T10:48:58.050Z,6.00
2022-12-24T10:49:57.909Z,7.10
2022-12-24T10:50:57.911Z,7.80
2022-12-24T10:52:00.794Z,7.30
2022-12-24T10:52:58.013Z,6.00
2022-12-24T10:53:57.897Z,7.10
2022-12-24T10:54:58.027Z,6.80
2022-12-24T10:55:57.867Z,6.20
2022-12-24T10:56:58.048Z,5.80
2022-12-24T10:57:57.848Z,5.70
2022-12-24T10:58:57.836Z,5.70
2022-12-24T10:59:57.804Z,6.20
2022-12-24T11:00:57.824Z,6.50
2022-12-24T11:01:57.983Z,6.10
2022-12-24T11:02:57.948Z,6.60
2022-12-24T11:03:57.764Z,6.50
2022-12-24T11:04:57.829Z,6.50
2022-12-24T11:05:58.291Z,6.30
2022-12-24T11:06:57.729Z,6.20
2022-12-24T11:07:57.712Z,5.90
2022-12-24T11:08:57.739Z,6.10
2022-12-24T11:09:57.699Z,7.10
2022-12-24T11:10:57.733Z,6.40
2022-12-24T11:12:08.400Z,5.50
2022-12-24T11:13:27.907Z,5.50
2022-12-24T11:13:58.698Z,5.70
2022-12-24T11:14:57.657Z,5.80
2022-12-24T11:15:57.848Z,6.60
2022-12-24T11:16:57.615Z,5.50
2022-12-24T11:17:57.631Z,5.30
2022-12-24T11:18:57.603Z,5.50
2022-12-24T11:19:57.596Z,6.00
2022-12-24T11:20:58.624Z,4.70
2022-12-24T11:22:04.287Z,4.80
2022-12-24T11:22:57.603Z,5.50
2022-12-24T11:23:57.560Z,6.30
2022-12-24T11:24:57.612Z,5.10
2022-12-24T11:26:00.293Z,6.70
2022-12-24T11:26:57.525Z,5.20
2022-12-24T11:27:57.657Z,5.50
2022-12-24T11:28:57.483Z,4.80
2022-12-24T11:30:00.141Z,4.70
2022-12-24T11:30:57.616Z,5.20
2022-12-24T11:31:57.462Z,4.60
2022-12-24T11:32:57.438Z,4.40
2022-12-24T11:33:57.444Z,4.40
2022-12-24T11:34:57.412Z,5.60
2022-12-24T11:35:58.441Z,5.10
2022-12-24T11:36:57.413Z,4.80
2022-12-24T11:37:57.406Z,5.20
2022-12-24T11:38:57.368Z,5.60
2022-12-24T11:39:57.371Z,4.60
2022-12-24T11:40:57.353Z,5.40
2022-12-24T11:41:57.393Z,5.20
2022-12-24T11:42:57.351Z,5.70
2022-12-24T11:43:57.359Z,5.10
2022-12-24T11:44:57.313Z,5.90
2022-12-24T11:46:04.365Z,5.60
2022-12-24T11:46:57.480Z,5.00
2022-12-24T11:47:57.313Z,5.80
2022-12-24T11:49:01.450Z,5.30
2022-12-24T11:50:17.629Z,4.90
2022-12-24T11:50:58.233Z,5.40
2022-12-24T11:51:57.387Z,6.20
2022-12-24T11:52:57.248Z,5.90
2022-12-24T11:53:57.213Z,5.40
2022-12-24T11:54:57.403Z,5.80
2022-12-24T11:55:57.174Z,5.30
2022-12-24T11:56:57.253Z,5.80
2022-12-24T11:57:57.257Z,5.50
2022-12-24T11:58:57.294Z,5.10
2022-12-24T11:59:57.164Z,5.00
2022-12-24T12:00:57.167Z,5.90
2022-12-24T12:01:57.199Z,5.10
2022-12-24T12:02:58.379Z,5.10
2022-12-24T12:03:57.199Z,5.30
2022-12-24T12:04:57.276Z,5.00
2022-12-24T12:05:57.081Z,5.40
2022-12-24T12:06:57.079Z,5.00
2022-12-24T12:07:57.062Z,5.40
2022-12-24T12:08:57.175Z,6.20
2022-12-24T12:09:57.059Z,5.10
2022-12-24T12:10:57.043Z,6.30
2022-12-24T12:11:57.045Z,5.30
2022-12-24T12:12:58.156Z,4.70
2022-12-24T12:13:57.000Z,5.80
2022-12-24T12:14:57.148Z,5.20
2022-12-24T12:15:56.983Z,5.60
2022-12-24T12:16:58.372Z,5.60
2022-12-24T12:17:56.976Z,5.50
2022-12-24T12:18:56.960Z,5.20
2022-12-24T12:19:56.940Z,5.60
2022-12-24T12:20:56.972Z,5.30
2022-12-24T12:21:56.935Z,5.20
2022-12-24T12:22:57.000Z,5.60
2022-12-24T12:23:56.898Z,5.30
2022-12-24T12:24:56.994Z,5.30
2022-12-24T12:25:56.862Z,5.90
2022-12-24T12:26:56.870Z,5.70
2022-12-24T12:27:56.835Z,6.30
2022-12-24T12:28:57.024Z,4.60
2022-12-24T12:29:56.831Z,5.20
2022-12-24T12:30:56.900Z,5.60
2022-12-24T12:31:56.866Z,5.70
2022-12-24T12:32:56.910Z,5.90
2022-12-24T12:33:56.778Z,5.30
2022-12-24T12:34:56.766Z,6.40
2022-12-24T12:35:56.758Z,6.60
2022-12-24T12:36:56.923Z,6.40
2022-12-24T12:37:56.729Z,6.10
2022-12-24T12:38:56.894Z,6.90
2022-12-24T12:39:56.707Z,6.60
2022-12-24T12:40:56.723Z,5.90
2022-12-24T12:41:56.731Z,6.90
2022-12-24T12:42:56.684Z,6.00
2022-12-24T12:43:57.300Z,6.40
2022-12-24T12:44:56.678Z,6.00
2022-12-24T12:45:56.644Z,7.20
2022-12-24T12:46:56.877Z,6.40
2022-12-24T12:47:56.769Z,6.00
2022-12-24T12:49:02.231Z,6.60
2022-12-24T12:49:57.609Z,5.60
2022-12-24T12:50:56.587Z,5.70
2022-12-24T12:51:56.621Z,5.60
2022-12-24T12:52:56.593Z,6.70
2022-12-24T12:53:56.584Z,6.40
2022-12-24T12:54:56.588Z,6.20
2022-12-24T12:55:56.556Z,5.70
2022-12-24T12:56:56.697Z,5.80
2022-12-24T12:57:56.517Z,5.40
2022-12-24T12:58:56.659Z,6.20
2022-12-24T12:59:56.518Z,5.90
2022-12-24T13:00:56.754Z,5.50
2022-12-24T13:01:56.713Z,5.40
2022-12-24T13:02:56.678Z,5.50
2022-12-24T13:03:58.364Z,6.40
2022-12-24T13:04:57.497Z,6.40
2022-12-24T13:05:56.439Z,7.60
2022-12-24T13:06:56.487Z,6.60
2022-12-24T13:07:56.442Z,7.30
2022-12-24T13:08:58.460Z,10.50
2022-12-24T13:09:56.385Z,7.70
2022-12-24T13:10:56.487Z,12.20
2022-12-24T13:11:56.358Z,7.90
2022-12-24T13:12:56.503Z,6.60
2022-12-24T13:13:56.342Z,7.10
2022-12-24T13:14:56.579Z,6.90
2022-12-24T13:15:56.350Z,5.40
2022-12-24T13:16:56.306Z,7.10
2022-12-24T13:17:56.308Z,6.10